Time;durP1;ratioP1;P1;durP2;ratioP2;P2;SDS_P1;SDS_P2;PMS_P1;PMS_P2;Temp;Humidity;BMP_temperature;BMP_pressure;BME280_temperature;BME280_humidity;BME280_pressure;Samples;Min_cycle;Max_cycle;Signal;HPM_P1;HPM_P2
2021/01/11 00:02:10;;;;;;;6.93;1.98;;;;;;;3.99;70.17;93455.97;5051939;28;20083;-72
2021/01/11 00:04:36;;;;;;;5.38;2.08;;;;;;;3.99;70.13;93458.59;5052461;28;20028;-72
2021/01/11 00:07:01;;;;;;;7.57;1.92;;;;;;;4.04;70.14;93452.47;5051992;28;20028;-72
2021/01/11 00:09:26;;;;;;;4.78;2.00;;;;;;;4.03;70.14;93443.78;5052635;28;20476;-72
2021/01/11 00:11:52;;;;;;;5.70;1.90;;;;;;;4.07;69.78;93442.16;5051905;28;20037;-73
2021/01/11 00:14:17;;;;;;;4.18;1.77;;;;;;;4.04;69.67;93440.06;5070336;28;20478;-72
2021/01/11 00:16:43;;;;;;;4.05;1.70;;;;;;;4.06;69.77;93445.84;5068223;28;20031;-72
2021/01/11 00:19:08;;;;;;;4.63;1.48;;;;;;;4.04;69.35;93441.94;5067653;28;20024;-73
2021/01/11 00:21:34;;;;;;;4.13;1.65;;;;;;;4.06;69.34;93439.78;5070538;28;20085;-72
2021/01/11 00:23:59;;;;;;;2.28;0.90;;;;;;;4.05;69.42;93440.84;5070712;28;20487;-72
2021/01/11 00:26:25;;;;;;;2.55;1.23;;;;;;;4.04;69.50;93439.28;5070123;28;20391;-72
2021/01/11 00:28:50;;;;;;;2.95;1.27;;;;;;;4.05;69.41;93431.09;5057104;28;20059;-72
2021/01/11 00:31:23;;;;;;;2.28;1.02;;;;;;;4.03;69.11;93435.88;5051371;28;20023;-72
2021/01/11 00:33:49;;;;;;;2.83;1.00;;;;;;;3.99;69.48;93440.16;5055741;28;20021;-72
2021/01/11 00:36:15;;;;;;;2.55;1.08;;;;;;;3.98;69.94;93446.47;5051502;28;20029;-72
2021/01/11 00:38:41;;;;;;;3.70;1.55;;;;;;;3.94;69.63;93432.28;5057187;28;20547;-72
2021/01/11 00:41:06;;;;;;;3.67;1.38;;;;;;;3.97;69.79;93421.19;5061829;28;20060;-72
2021/01/11 00:43:31;;;;;;;3.35;1.02;;;;;;;3.99;69.72;93413.78;5061635;28;20029;-72
2021/01/11 00:45:57;;;;;;;1.77;0.93;;;;;;;4.01;69.55;93417.69;5055256;28;20016;-72
2021/01/11 00:48:22;;;;;;;2.63;1.05;;;;;;;4.04;69.80;93397.88;5069981;28;20016;-72
2021/01/11 00:50:47;;;;;;;2.47;1.20;;;;;;;4.03;69.96;93414.78;5069826;28;20445;-72
2021/01/11 00:53:13;;;;;;;3.00;1.50;;;;;;;4.06;70.18;93398.38;5061697;28;20115;-72
2021/01/11 00:55:38;;;;;;;4.72;2.20;;;;;;;4.03;69.84;93396.31;5056580;28;20476;-73
2021/01/11 00:58:04;;;;;;;3.53;1.63;;;;;;;4.03;69.93;93393.69;5051291;28;20051;-72
2021/01/11 01:00:29;;;;;;;4.47;2.00;;;;;;;4.04;69.92;93384.69;5051325;28;20056;-72
2021/01/11 01:02:55;;;;;;;4.65;1.60;;;;;;;4.04;69.87;93373.38;5050934;28;20020;-73
2021/01/11 01:05:20;;;;;;;5.30;2.58;;;;;;;4.04;69.78;93358.31;5051125;28;20430;-72
2021/01/11 01:07:46;;;;;;;6.97;3.17;;;;;;;4.05;69.79;93362.53;5051191;28;20029;-72
2021/01/11 01:10:13;;;;;;;6.10;3.30;;;;;;;3.98;69.99;93378.69;5062845;28;20483;-72
2021/01/11 01:12:39;;;;;;;6.10;2.58;;;;;;;3.96;69.88;93366.88;5069463;28;20037;-72
2021/01/11 01:15:05;;;;;;;7.75;2.97;;;;;;;3.90;70.27;93347.69;5070677;28;20055;-72
2021/01/11 01:17:31;;;;;;;6.72;2.38;;;;;;;3.85;70.36;93341.69;5070852;28;20035;-72
2021/01/11 01:19:56;;;;;;;7.05;1.48;;;;;;;3.81;70.49;93334.34;5052348;28;20025;-72
2021/01/11 01:22:22;;;;;;;4.32;1.40;;;;;;;3.76;70.81;93329.13;5065005;28;20025;-72
2021/01/11 01:24:47;;;;;;;3.00;1.27;;;;;;;3.71;71.34;93331.84;5069306;28;20039;-72
2021/01/11 01:27:12;;;;;;;3.28;1.15;;;;;;;3.72;71.71;93362.41;5068993;28;20032;-72
2021/01/11 01:29:38;;;;;;;3.83;1.35;;;;;;;3.72;71.71;93366.88;5058069;28;20024;-72
2021/01/11 01:32:04;;;;;;;3.03;1.30;;;;;;;3.76;71.69;93371.31;5069310;28;20038;-72
2021/01/11 01:34:29;;;;;;;3.05;1.23;;;;;;;3.83;71.48;93378.91;5070659;28;20089;-73
2021/01/11 01:36:55;;;;;;;5.15;1.15;;;;;;;3.88;71.47;93385.94;5070543;28;20483;-72
2021/01/11 01:39:21;;;;;;;3.42;0.95;;;;;;;3.93;71.16;93420.97;5068905;28;20111;-73
2021/01/11 01:41:46;;;;;;;2.50;1.20;;;;;;;3.95;71.01;93413.56;5070234;28;20021;-72
2021/01/11 01:44:12;;;;;;;3.63;0.93;;;;;;;4.04;70.70;93428.75;5070360;28;20055;-72
2021/01/11 01:46:37;;;;;;;4.03;1.38;;;;;;;4.06;70.97;93437.16;5070179;28;20031;-73
2021/01/11 01:49:04;;;;;;;1.92;1.02;;;;;;;4.06;70.77;93451.13;5069150;28;20434;-72
2021/01/11 01:51:30;;;;;;;4.57;1.05;;;;;;;4.05;70.78;93465.41;5050319;28;20017;-72
2021/01/11 01:53:56;;;;;;;3.58;1.20;;;;;;;3.99;71.13;93498.94;5050206;28;20400;-72
2021/01/11 01:56:25;;;;;;;3.55;1.15;;;;;;;3.77;71.86;93519.75;5048758;28;20403;-73
2021/01/11 01:58:51;;;;;;;4.72;1.85;;;;;;;3.59;72.99;93543.06;5050060;28;20480;-72
2021/01/11 02:01:17;;;;;;;3.25;1.65;;;;;;;3.35;74.30;93536.94;5048784;28;20110;-72
2021/01/11 02:03:42;;;;;;;8.30;1.85;;;;;;;3.14;75.02;93534.47;5049909;28;20031;-72
2021/01/11 02:06:08;;;;;;;8.13;2.70;;;;;;;3.04;75.58;93526.63;5049997;28;20028;-72
2021/01/11 02:08:49;;;;;;;5.70;2.40;;;;;;;2.98;75.92;93531.13;5064905;28;20020;-73
2021/01/11 02:11:30;;;;;;;6.22;2.55;;;;;;;2.75;77.35;93524.72;5063082;28;20032;-72
2021/01/11 02:14:23;;;;;;;8.23;3.90;;;;;;;2.63;77.71;93526.09;5066501;28;20458;-72
2021/01/11 02:17:05;;;;;;;9.48;4.53;;;;;;;2.52;78.05;93534.00;5068383;28;20104;-72
2021/01/11 02:20:12;;;;;;;8.88;4.72;;;;;;;2.36;78.85;93538.59;5069598;28;20028;-72
2021/01/11 02:22:56;;;;;;;10.35;6.65;;;;;;;2.29;79.32;93543.31;5068612;28;20089;-72
2021/01/11 02:25:52;;;;;;;10.77;6.28;;;;;;;2.13;79.99;93574.13;5048665;28;20043;-72
2021/01/11 02:28:57;;;;;;;14.30;6.03;;;;;;;2.05;80.44;93558.91;5049701;28;20108;-72
2021/01/11 02:31:24;;;;;;;11.32;5.88;;;;;;;2.01;80.54;93592.03;5056023;28;20037;-72
2021/01/11 02:33:54;;;;;;;9.88;6.10;;;;;;;1.93;81.13;93595.22;5056694;28;20115;-72
2021/01/11 02:36:23;;;;;;;11.40;5.63;;;;;;;1.83;81.55;93617.03;5048391;28;20487;-72
2021/01/11 02:38:50;;;;;;;11.10;5.75;;;;;;;1.77;81.54;93626.78;5048379;28;20025;-72
2021/01/11 02:41:16;;;;;;;7.88;4.90;;;;;;;1.67;81.76;93660.94;5049472;28;20043;-72
2021/01/11 02:43:41;;;;;;;7.97;4.53;;;;;;;1.53;82.13;93667.75;5049557;28;20033;-72
2021/01/11 02:46:07;;;;;;;6.75;4.47;;;;;;;1.48;82.15;93688.75;5049518;28;20605;-72
2021/01/11 02:48:56;;;;;;;6.57;4.22;;;;;;;1.40;83.13;93684.78;5049389;28;20547;-72
2021/01/11 02:51:21;;;;;;;7.50;3.55;;;;;;;1.35;82.92;93664.56;5066844;28;20039;-72
2021/01/11 02:54:20;;;;;;;4.30;2.65;;;;;;;1.23;82.85;93629.88;5068002;28;20025;-72
2021/01/11 02:57:02;;;;;;;4.97;2.05;;;;;;;1.32;82.39;93625.72;5049641;28;20579;-72
2021/01/11 02:59:32;;;;;;;3.60;2.30;;;;;;;1.44;82.77;93604.41;5068745;28;20108;-72
2021/01/11 03:02:02;;;;;;;4.68;2.58;;;;;;;1.58;82.19;93586.31;5068225;28;20066;-72
2021/01/11 03:04:30;;;;;;;3.50;1.75;;;;;;;1.75;81.57;93555.31;5069449;28;20031;-72
2021/01/11 03:07:01;;;;;;;2.75;1.42;;;;;;;1.89;80.64;93549.47;5069173;28;20514;-73
2021/01/11 03:09:27;;;;;;;5.28;1.83;;;;;;;2.03;79.98;93524.22;5061069;28;20205;-72
2021/01/11 03:11:54;;;;;;;1.95;1.20;;;;;;;2.17;79.42;93514.69;5047774;28;20063;-73
2021/01/11 03:14:19;;;;;;;4.13;1.75;;;;;;;2.33;78.78;93501.50;5047898;28;20036;-73
2021/01/11 03:16:45;;;;;;;3.67;1.65;;;;;;;2.46;78.31;93487.75;5049322;28;20021;-73
2021/01/11 03:19:10;;;;;;;2.63;1.33;;;;;;;2.56;77.68;93482.44;5050079;28;20047;-73
2021/01/11 03:21:37;;;;;;;4.25;2.08;;;;;;;2.69;77.09;93462.63;5052791;28;20040;-72
2021/01/11 03:24:06;;;;;;;4.22;1.75;;;;;;;2.79;76.15;93451.25;5051492;28;20369;-72
2021/01/11 03:26:32;;;;;;;4.65;2.20;;;;;;;2.86;75.97;93441.19;5052813;28;20032;-72
2021/01/11 03:28:57;;;;;;;5.35;2.38;;;;;;;2.88;76.09;93441.72;5059929;28;20016;-72
2021/01/11 03:31:23;;;;;;;4.97;1.95;;;;;;;2.97;75.59;93421.63;5073169;28;20365;-72
2021/01/11 03:33:49;;;;;;;3.88;1.58;;;;;;;3.05;75.78;93414.19;5072708;28;20476;-72
2021/01/11 03:36:15;;;;;;;3.90;1.65;;;;;;;3.14;75.38;93413.31;5071360;28;20074;-73
2021/01/11 03:38:41;;;;;;;3.80;1.70;;;;;;;3.22;75.25;93404.81;5067122;28;20064;-72
2021/01/11 03:41:08;;;;;;;5.60;1.30;;;;;;;3.36;74.79;93418.13;5057539;28;20059;-72
2021/01/11 03:43:40;;;;;;;2.75;1.17;;;;;;;3.40;74.52;93408.59;5072552;28;20368;-72
2021/01/11 03:46:06;;;;;;;;;;;;;;;3.47;74.10;93392.47;5072888;28;20047;-72
2021/01/11 03:48:33;;;;;;;1.80;0.90;;;;;;;3.52;74.06;93396.88;5072500;28;19916;-72
2021/01/11 03:51:00;;;;;;;2.42;1.02;;;;;;;3.58;73.88;93388.66;5072505;28;20017;-72
2021/01/11 03:53:25;;;;;;;3.75;1.13;;;;;;;3.69;73.23;93386.69;5053455;28;20028;-72
2021/01/11 03:55:51;;;;;;;1.83;0.93;;;;;;;3.71;73.14;93389.84;5050905;28;20029;-72
2021/01/11 03:58:16;;;;;;;2.30;1.10;;;;;;;3.79;73.00;93399.75;5052303;28;20086;-71
2021/01/11 04:00:41;;;;;;;3.92;1.73;;;;;;;3.90;72.66;93415.44;5052674;28;20083;-72
2021/01/11 04:03:07;;;;;;;4.07;1.88;;;;;;;3.94;72.76;93432.28;5051193;28;20482;-72
2021/01/11 04:05:33;;;;;;;3.28;1.40;;;;;;;4.01;72.40;93461.75;5052385;28;20029;-72
2021/01/11 04:07:58;;;;;;;1.88;0.80;;;;;;;4.06;72.71;93474.88;5050844;28;20021;-72
2021/01/11 04:10:24;;;;;;;1.40;0.77;;;;;;;4.08;72.28;93499.09;5052423;28;20400;-71
2021/01/11 04:12:50;;;;;;;2.47;0.88;;;;;;;3.76;73.78;93499.69;5052081;28;20060;-72
2021/01/11 04:15:15;;;;;;;3.72;1.20;;;;;;;3.74;74.50;93507.09;5052148;28;20033;-72
2021/01/11 04:17:41;;;;;;;10.00;1.73;;;;;;;3.59;74.98;93494.84;5052342;28;20101;-71
2021/01/11 04:20:07;;;;;;;5.45;1.50;;;;;;;3.45;75.37;93493.94;5051996;28;20090;-71
2021/01/11 04:22:32;;;;;;;3.85;1.63;;;;;;;3.46;75.48;93496.31;5050763;28;20453;-71
2021/01/11 04:24:58;;;;;;;2.97;1.50;;;;;;;3.36;76.11;93470.81;5052068;28;20083;-71
2021/01/11 04:27:23;;;;;;;4.68;1.70;;;;;;;3.33;76.38;93450.28;5050772;28;20032;-71
2021/01/11 04:29:49;;;;;;;3.25;1.42;;;;;;;3.37;76.66;93453.16;5050753;28;20484;-72
2021/01/11 04:32:14;;;;;;;3.53;1.60;;;;;;;3.41;76.68;93451.53;5062569;28;20076;-72
2021/01/11 04:34:40;;;;;;;8.35;1.90;;;;;;;3.43;76.99;93467.84;5071608;28;20036;-72
2021/01/11 04:37:09;;;;;;;4.22;1.98;;;;;;;3.57;76.39;93454.81;5070260;28;20032;-72
2021/01/11 04:39:35;;;;;;;5.50;2.80;;;;;;;3.67;76.35;93317.66;5070343;28;20475;-72
2021/01/11 04:42:11;;;;;;;8.23;3.22;;;;;;;3.78;75.61;93223.41;5054137;28;20029;-72
2021/01/11 04:44:37;;;;;;;7.22;2.95;;;;;;;3.88;75.17;93239.09;5070166;28;20020;-71
2021/01/11 04:47:03;;;;;;;4.25;1.80;;;;;;;3.87;75.47;93242.00;5053917;28;20032;-71
2021/01/11 04:49:29;;;;;;;2.92;1.35;;;;;;;3.96;75.36;93203.38;5062902;28;20016;-71
2021/01/11 04:51:55;;;;;;;3.88;1.38;;;;;;;3.95;75.24;93251.94;5071570;28;20024;-72
2021/01/11 04:54:21;;;;;;;2.67;1.23;;;;;;;3.65;76.28;93268.94;5054552;28;20033;-73
2021/01/11 04:56:49;;;;;;;3.47;1.30;;;;;;;3.77;75.69;93275.34;5051390;28;20094;-73
2021/01/11 04:59:18;;;;;;;2.70;1.08;;;;;;;3.81;74.34;93280.84;5051167;28;20024;-73
2021/01/11 05:01:48;;;;;;;3.17;1.40;;;;;;;3.93;73.90;93285.69;5051239;28;20063;-73
2021/01/11 05:04:14;;;;;;;2.45;1.50;;;;;;;3.99;73.21;93309.06;5051467;28;20048;-73
2021/01/11 05:06:45;;;;;;;5.50;2.45;;;;;;;4.07;73.21;93297.09;5067159;28;20051;-73
2021/01/11 05:09:13;;;;;;;2.97;1.15;;;;;;;4.10;72.53;93306.28;5071144;28;20077;-73
2021/01/11 05:11:39;;;;;;;1.48;0.88;;;;;;;4.09;72.26;93329.25;5071151;28;23093;-72
2021/01/11 05:14:04;;;;;;;2.53;1.38;;;;;;;4.15;72.72;93330.75;5067633;28;20131;-72
2021/01/11 05:16:30;;;;;;;1.55;0.80;;;;;;;4.16;72.74;93350.78;5050926;28;20047;-72
2021/01/11 05:19:01;;;;;;;3.10;1.20;;;;;;;4.16;72.13;93369.22;5050900;28;20039;-71
2021/01/11 05:21:42;;;;;;;2.10;0.95;;;;;;;4.22;72.67;93354.91;5051021;28;20048;-72
2021/01/11 05:24:37;;;;;;;2.78;1.13;;;;;;;4.27;72.41;93354.03;5049239;28;20491;-71
2021/01/11 05:27:10;;;;;;;3.95;1.38;;;;;;;4.31;72.34;93349.75;5069734;28;20020;-71
2021/01/11 05:29:38;;;;;;;1.73;0.90;;;;;;;4.38;72.00;93358.13;5052705;28;20016;-72
2021/01/11 05:32:08;;;;;;;3.05;1.30;;;;;;;4.50;72.08;93355.03;5049128;28;20033;-71
2021/01/11 05:34:51;;;;;;;5.65;1.80;;;;;;;4.48;72.14;93362.47;5049166;28;20025;-72
2021/01/11 05:37:33;;;;;;;2.95;1.35;;;;;;;4.50;71.74;93370.88;5069511;28;20389;-72
2021/01/11 05:40:23;;;;;;;3.50;1.55;;;;;;;4.49;71.64;93384.34;5050818;28;20017;-72
2021/01/11 05:43:07;;;;;;;2.88;1.35;;;;;;;4.53;71.86;93388.78;5046687;28;20033;-72
2021/01/11 05:45:35;;;;;;;2.83;1.15;;;;;;;4.60;71.44;93386.56;5050422;28;20020;-72
2021/01/11 05:48:05;;;;;;;2.22;1.20;;;;;;;4.58;71.71;93364.94;5067059;28;20020;-72
2021/01/11 05:50:34;;;;;;;2.75;1.30;;;;;;;4.66;71.77;93378.56;5057379;28;20074;-71
2021/01/11 05:53:00;;;;;;;2.78;1.23;;;;;;;4.74;71.33;93375.25;5050348;28;20102;-72
2021/01/11 05:55:28;;;;;;;6.68;1.90;;;;;;;4.75;70.69;93369.69;5049026;28;20021;-72
2021/01/11 05:58:00;;;;;;;7.40;1.63;;;;;;;4.70;71.07;93374.28;5048786;28;20404;-72
2021/01/11 06:00:28;;;;;;;7.97;1.92;;;;;;;4.63;71.48;93380.69;5057388;28;20032;-72
2021/01/11 06:02:54;;;;;;;4.28;2.05;;;;;;;4.53;71.90;93370.28;5050191;28;20073;-72
2021/01/11 06:05:21;;;;;;;3.78;1.90;;;;;;;4.50;72.01;93402.56;5058444;28;20024;-71
2021/01/11 06:07:47;;;;;;;2.67;1.40;;;;;;;4.49;71.73;93392.28;5066903;28;20040;-71
2021/01/11 06:10:15;;;;;;;7.20;2.50;;;;;;;4.49;72.67;93403.59;5068767;28;20020;-71
2021/01/11 06:12:42;;;;;;;3.13;1.80;;;;;;;4.48;72.28;93388.84;5068574;28;20045;-71
2021/01/11 06:15:14;;;;;;;3.17;1.45;;;;;;;4.52;72.55;93416.25;5068569;28;20032;-71
2021/01/11 06:17:41;;;;;;;5.55;1.90;;;;;;;4.54;72.48;93435.22;5068597;28;20463;-72
2021/01/11 06:20:28;;;;;;;5.13;2.50;;;;;;;4.50;72.11;93442.13;5068761;28;20120;-72
2021/01/11 06:22:54;;;;;;;5.60;3.05;;;;;;;4.37;72.97;93448.09;5051476;28;20025;-72
2021/01/11 06:25:19;;;;;;;8.20;4.30;;;;;;;4.31;72.84;93462.44;5049659;28;20031;-72
2021/01/11 06:27:55;;;;;;;13.77;4.97;;;;;;;4.15;73.58;93470.56;5048620;28;20048;-71
2021/01/11 06:30:37;;;;;;;14.80;5.80;;;;;;;3.98;73.89;93459.66;5049919;28;20053;-72
2021/01/11 06:33:10;;;;;;;11.75;6.00;;;;;;;3.94;74.02;93454.16;5061087;28;20140;-71
2021/01/11 06:35:47;;;;;;;19.75;7.03;;;;;;;3.86;74.27;93469.81;5048145;28;20458;-72
2021/01/11 06:38:18;;;;;;;20.73;7.97;;;;;;;3.86;74.83;93477.72;5049930;28;20484;-72
2021/01/11 06:40:46;;;;;;;16.27;8.43;;;;;;;3.63;76.09;93448.44;5048173;28;20053;-72
2021/01/11 06:43:11;;;;;;;15.15;7.65;;;;;;;3.71;75.30;93450.47;5048402;28;20037;-72
2021/01/11 06:45:41;;;;;;;14.20;7.93;;;;;;;3.71;75.48;93449.69;5049807;28;20498;-71
2021/01/11 06:48:16;;;;;;;16.55;7.38;;;;;;;3.76;75.23;93444.34;5052542;28;20499;-72
2021/01/11 06:50:43;;;;;;;15.63;7.18;;;;;;;3.83;75.49;93442.16;5069295;28;20142;-72
2021/01/11 06:53:09;;;;;;;11.65;6.70;;;;;;;3.94;75.02;93437.56;5059026;28;20032;-72
2021/01/11 06:55:34;;;;;;;16.60;7.57;;;;;;;3.99;74.90;93461.25;5057886;28;20376;-71
2021/01/11 06:58:04;;;;;;;13.35;6.63;;;;;;;4.05;74.18;93475.94;5051832;28;20017;-71
2021/01/11 07:00:32;;;;;;;12.57;6.47;;;;;;;4.11;74.15;93469.53;5053317;28;20044;-71
2021/01/11 07:02:58;;;;;;;15.52;8.07;;;;;;;4.09;74.11;93466.41;5053116;28;20052;-72
2021/01/11 07:05:35;;;;;;;15.20;7.35;;;;;;;3.95;74.36;93490.03;5053425;28;20462;-71
2021/01/11 07:08:04;;;;;;;15.65;7.50;;;;;;;3.91;74.76;93504.03;5060462;28;20040;-71
2021/01/11 07:10:30;;;;;;;12.98;6.13;;;;;;;3.83;74.86;93515.97;5072043;28;20024;-71
2021/01/11 07:13:18;;;;;;;12.32;6.95;;;;;;;3.62;76.05;93504.81;5071633;28;20127;-71
2021/01/11 07:15:53;;;;;;;15.27;6.65;;;;;;;3.58;75.86;93498.53;5071636;28;20028;-72
2021/01/11 07:18:36;;;;;;;13.07;6.03;;;;;;;3.55;76.06;93496.47;5067899;28;20474;-72
2021/01/11 07:21:10;;;;;;;13.68;6.28;;;;;;;3.55;76.42;93504.38;5069487;28;20024;-71
2021/01/11 07:23:35;;;;;;;12.43;6.18;;;;;;;3.55;76.42;93507.00;5060345;28;20096;-71
2021/01/11 07:26:01;;;;;;;11.45;6.70;;;;;;;3.49;76.40;93511.53;5051522;28;20116;-70
2021/01/11 07:28:27;;;;;;;12.88;7.45;;;;;;;3.33;76.66;93524.03;5052943;28;20064;-71
2021/01/11 07:30:54;;;;;;;16.17;8.05;;;;;;;3.25;77.37;93505.41;5057065;28;20075;-71
2021/01/11 07:33:21;;;;;;;13.90;7.72;;;;;;;3.26;77.92;93539.41;5052865;28;20094;-71
2021/01/11 07:35:47;;;;;;;17.15;8.88;;;;;;;3.19;78.02;93533.63;5051715;28;20028;-71
2021/01/11 07:38:13;;;;;;;16.55;8.27;;;;;;;3.22;77.58;93557.59;5055523;28;20044;-71
2021/01/11 07:40:38;;;;;;;14.73;7.57;;;;;;;3.12;78.14;93546.34;5058406;28;20503;-71
2021/01/11 07:43:05;;;;;;;18.73;9.00;;;;;;;3.17;77.99;93552.34;5062354;28;20525;-70
2021/01/11 07:45:31;;;;;;;19.92;9.02;;;;;;;3.23;77.99;93579.44;5051436;28;20036;-70
2021/01/11 07:47:57;;;;;;;15.48;7.80;;;;;;;3.28;77.85;93576.78;5051108;28;20037;-70
2021/01/11 07:50:29;;;;;;;13.20;6.32;;;;;;;3.28;77.73;93581.25;5070601;28;20024;-71
2021/01/11 07:52:55;;;;;;;9.95;5.93;;;;;;;3.27;77.87;93585.72;5072376;28;20067;-71
2021/01/11 07:55:28;;;;;;;12.00;6.07;;;;;;;3.30;77.77;93587.06;5070407;28;20029;-72
2021/01/11 07:58:01;;;;;;;15.52;7.03;;;;;;;3.24;77.40;93586.28;5066435;28;20063;-72
2021/01/11 08:00:26;;;;;;;11.95;6.63;;;;;;;3.22;77.89;93591.03;5057486;28;20027;-72
2021/01/11 08:02:54;;;;;;;15.10;7.25;;;;;;;3.25;78.63;93605.50;5059719;28;20395;-71
2021/01/11 08:05:24;;;;;;;14.38;7.25;;;;;;;3.30;78.45;93611.53;5064251;28;20095;-69
2021/01/11 08:07:58;;;;;;;21.23;7.82;;;;;;;3.25;77.76;93622.09;5061039;28;20107;-70
2021/01/11 08:10:23;;;;;;;16.58;8.27;;;;;;;3.22;77.88;93622.66;5063036;28;20020;-69
2021/01/11 08:12:49;;;;;;;13.27;7.70;;;;;;;3.22;78.07;93615.53;5061723;28;20040;-69
2021/01/11 08:15:18;;;;;;;15.02;8.02;;;;;;;3.17;77.76;93618.19;5064577;28;20510;-69
2021/01/11 08:17:45;;;;;;;13.35;6.85;;;;;;;3.11;78.15;93631.66;5066598;28;20471;-69
2021/01/11 08:20:10;;;;;;;14.35;6.68;;;;;;;3.15;77.79;93612.41;5056714;28;20108;-69
2021/01/11 08:22:35;;;;;;;11.38;5.43;;;;;;;3.12;77.60;93633.25;5062935;28;20082;-68
2021/01/11 08:25:04;;;;;;;10.65;5.90;;;;;;;3.16;77.61;93631.63;5061424;28;20574;-68
2021/01/11 08:30:51;;;;;;;21.75;7.72;;;;;;;3.30;77.41;93650.28;5062804;28;20044;-68
2021/01/11 08:33:17;;;;;;;13.75;7.35;;;;;;;3.28;77.58;93647.91;5062230;28;20408;-68
2021/01/11 08:35:42;;;;;;;20.15;7.53;;;;;;;3.34;77.70;93652.09;5065392;28;20025;-69
2021/01/11 08:38:11;;;;;;;17.98;7.80;;;;;;;3.41;77.95;93652.56;5058819;28;20040;-69
2021/01/11 08:40:38;;;;;;;13.45;6.75;;;;;;;3.53;77.90;93643.53;5056978;28;20032;-69
2021/01/11 08:43:19;;;;;;;11.25;6.25;;;;;;;3.62;77.18;93649.78;5058403;28;20123;-67
2021/01/11 08:45:50;;;;;;;19.03;8.23;;;;;;;3.77;76.64;93670.00;5056339;28;20381;-68
2021/01/11 08:48:16;;;;;;;15.18;6.28;;;;;;;3.90;76.17;93681.75;5061797;28;20029;-69
2021/01/11 08:50:43;;;;;;;13.13;6.70;;;;;;;4.02;75.33;93676.91;5068351;28;20100;-68
2021/01/11 08:53:23;;;;;;;12.57;5.32;;;;;;;4.11;75.17;93672.63;5054109;28;20488;-68
2021/01/11 08:56:01;;;;;;;12.00;5.90;;;;;;;4.11;75.25;93691.09;5058701;28;20135;-68
2021/01/11 08:58:31;;;;;;;7.85;4.45;;;;;;;4.06;74.74;93696.41;5063863;28;20028;-69
2021/01/11 09:01:16;;;;;;;8.18;4.95;;;;;;;4.07;74.26;93689.28;5053046;28;20063;-67
2021/01/11 09:03:49;;;;;;;14.27;5.30;;;;;;;4.07;74.59;93684.81;5059023;28;20051;-69
2021/01/11 09:06:36;;;;;;;11.30;5.72;;;;;;;4.14;74.33;93674.72;5063971;28;20029;-67
2021/01/11 09:09:04;;;;;;;11.63;5.88;;;;;;;4.21;74.08;93684.94;5058377;28;20028;-68
2021/01/11 09:11:30;;;;;;;10.63;5.85;;;;;;;4.34;73.28;93670.34;5053918;28;20024;-68
2021/01/11 09:14:09;;;;;;;10.25;5.78;;;;;;;4.36;74.16;93655.00;5052513;28;20049;-68
2021/01/11 09:16:37;;;;;;;11.63;5.95;;;;;;;4.45;74.18;93668.38;5059569;28;20488;-68
2021/01/11 09:19:11;;;;;;;16.13;6.93;;;;;;;4.52;73.64;93672.25;5052460;28;20089;-68
2021/01/11 09:21:41;;;;;;;22.20;11.95;;;;;;;4.57;73.57;93680.13;5058711;28;20028;-68
2021/01/11 09:24:08;;;;;;;21.17;11.25;;;;;;;4.58;73.87;93683.53;5064197;28;20036;-68
2021/01/11 09:26:39;;;;;;;16.55;9.48;;;;;;;4.61;74.00;93677.72;5068992;28;20032;-70
2021/01/11 09:29:06;;;;;;;22.45;10.63;;;;;;;4.65;73.50;93684.00;5054372;28;20058;-68
2021/01/11 09:31:32;;;;;;;17.15;8.85;;;;;;;4.61;73.51;93694.34;5060415;28;20021;-68
2021/01/11 09:33:58;;;;;;;15.48;8.35;;;;;;;4.61;73.77;93688.28;5057620;28;20031;-69
2021/01/11 09:36:24;;;;;;;12.27;6.85;;;;;;;4.63;73.74;93683.50;5061065;28;20081;-68
2021/01/11 09:38:50;;;;;;;11.90;6.40;;;;;;;4.62;73.51;93690.63;5058044;28;20037;-68
2021/01/11 09:41:17;;;;;;;10.05;5.80;;;;;;;4.63;73.52;93681.63;5061934;28;20111;-68
2021/01/11 09:43:43;;;;;;;11.85;6.55;;;;;;;4.58;73.59;93692.25;5056890;28;20020;-69
2021/01/11 09:46:10;;;;;;;14.25;7.10;;;;;;;4.56;73.40;93680.38;5069619;28;20028;-68
2021/01/11 09:48:36;;;;;;;12.45;7.32;;;;;;;4.46;74.04;93697.13;5062750;28;20094;-68
2021/01/11 09:51:03;;;;;;;14.75;7.65;;;;;;;4.38;74.85;93679.25;5061591;28;20027;-68
2021/01/11 09:53:29;;;;;;;12.13;7.75;;;;;;;4.42;75.06;93675.78;5059210;28;20016;-69
2021/01/11 09:55:54;;;;;;;12.13;7.88;;;;;;;4.45;74.23;93674.44;5057582;28;20055;-68
2021/01/11 09:58:20;;;;;;;19.73;8.23;;;;;;;4.48;74.35;93670.44;5061757;28;20032;-68
2021/01/11 10:00:45;;;;;;;14.77;7.60;;;;;;;4.41;74.75;93678.69;5062251;28;20020;-69
2021/01/11 10:03:11;;;;;;;13.38;7.75;;;;;;;4.46;75.06;93670.75;5061583;28;20388;-69
2021/01/11 10:05:36;;;;;;;16.02;7.28;;;;;;;4.42;74.70;93691.63;5061357;28;20056;-69
2021/01/11 10:08:02;;;;;;;15.13;6.97;;;;;;;4.33;75.90;93689.84;5061044;28;20036;-68
2021/01/11 10:10:28;;;;;;;14.90;7.75;;;;;;;4.32;76.03;93664.53;5053255;28;20062;-68
2021/01/11 10:12:53;;;;;;;14.70;8.13;;;;;;;4.43;76.62;93653.59;5059266;28;20435;-68
2021/01/11 10:15:19;;;;;;;19.80;9.82;;;;;;;4.68;75.18;93682.66;5055406;28;20033;-69
2021/01/11 10:17:44;;;;;;;30.27;12.32;;;;;;;4.80;74.50;93675.94;5057867;28;20025;-68
2021/01/11 10:20:10;;;;;;;32.90;13.80;;;;;;;4.90;73.60;93664.44;5055949;28;20027;-69
2021/01/11 10:22:36;;;;;;;22.95;11.40;;;;;;;4.87;73.06;93665.03;5061976;28;20498;-68
2021/01/11 10:25:03;;;;;;;22.55;11.82;;;;;;;4.88;73.55;93661.31;5057784;28;20381;-69
2021/01/11 10:27:29;;;;;;;21.00;11.80;;;;;;;4.87;73.57;93656.31;5064729;28;20457;-69
2021/01/11 10:29:54;;;;;;;22.63;11.98;;;;;;;4.87;74.18;93653.69;5069565;28;20028;-69
2021/01/11 10:32:26;;;;;;;22.92;11.80;;;;;;;5.03;74.12;93640.00;5056814;28;20466;-69
2021/01/11 10:34:51;;;;;;;22.67;10.38;;;;;;;5.19;73.13;93634.50;5064231;28;20032;-69
2021/01/11 10:37:17;;;;;;;16.60;10.02;;;;;;;5.26;72.61;93650.03;5064587;28;20368;-69
2021/01/11 10:39:42;;;;;;;18.95;10.68;;;;;;;5.31;72.04;93648.13;5063262;28;20389;-70
2021/01/11 10:42:08;;;;;;;23.48;10.68;;;;;;;5.22;72.04;93647.94;5068313;28;20067;-70
2021/01/11 10:44:34;;;;;;;18.20;10.57;;;;;;;5.13;71.76;93646.22;5056609;28;20040;-69
2021/01/11 10:47:00;;;;;;;22.00;11.93;;;;;;;5.07;72.66;93660.56;5069043;28;20390;-70
2021/01/11 10:49:27;;;;;;;21.85;12.05;;;;;;;5.09;72.26;93676.91;5062273;28;20097;-69
2021/01/11 10:51:55;;;;;;;19.77;11.52;;;;;;;5.13;72.68;93672.63;5057894;28;20027;-69
2021/01/11 10:54:25;;;;;;;24.20;12.35;;;;;;;5.02;72.69;93672.75;5064483;28;20119;-71
2021/01/11 10:56:53;;;;;;;23.55;12.20;;;;;;;4.94;73.22;93678.66;5051833;28;20021;-69
2021/01/11 10:59:23;;;;;;;22.15;13.23;;;;;;;4.93;73.56;93658.63;5063407;28;20385;-69
2021/01/11 11:01:52;;;;;;;24.40;13.48;;;;;;;4.87;73.99;93635.97;5055391;28;20013;-69
2021/01/11 11:04:19;;;;;;;25.13;14.45;;;;;;;4.88;74.19;93637.53;5060402;28;20020;-70
2021/01/11 11:06:44;;;;;;;28.38;16.35;;;;;;;4.87;74.00;93638.63;5049087;28;20021;-70
2021/01/11 11:09:10;;;;;;;34.65;17.98;;;;;;;4.81;74.34;93645.81;5056610;28;20027;-71
2021/01/11 11:11:36;;;;;;;36.70;19.77;;;;;;;4.87;74.37;93670.31;5056560;28;20020;-71
2021/01/11 11:14:01;;;;;;;34.33;17.45;;;;;;;4.86;74.32;93678.50;5062528;28;20403;-70
2021/01/11 11:16:26;;;;;;;44.17;20.52;;;;;;;4.74;74.86;93678.88;5060089;28;20032;-70
2021/01/11 11:18:52;;;;;;;56.33;27.50;;;;;;;4.46;75.61;93691.03;5059148;28;20021;-70
2021/01/11 11:21:17;;;;;;;55.70;27.33;;;;;;;4.27;76.31;93689.09;5056904;28;20036;-70
2021/01/11 11:23:43;;;;;;;56.38;28.75;;;;;;;4.19;76.59;93647.50;5055717;28;20042;-70
2021/01/11 11:26:10;;;;;;;54.33;26.88;;;;;;;4.10;76.40;93663.13;5058736;28;20040;-70
2021/01/11 11:28:37;;;;;;;51.67;25.25;;;;;;;3.98;76.93;93655.59;5057808;28;20029;-70
2021/01/11 11:31:04;;;;;;;38.15;19.80;;;;;;;4.02;76.41;93646.06;5056514;28;20040;-69
2021/01/11 11:33:29;;;;;;;29.35;15.20;;;;;;;4.04;76.72;93629.97;5060726;28;20040;-69
2021/01/11 11:35:55;;;;;;;26.27;12.80;;;;;;;4.08;76.15;93630.19;5053868;28;20479;-69
2021/01/11 11:38:22;;;;;;;26.90;12.93;;;;;;;4.19;75.46;93642.22;5063455;28;20039;-69
2021/01/11 11:40:48;;;;;;;20.25;10.00;;;;;;;4.18;74.87;93644.06;5063780;28;20033;-69
2021/01/11 11:43:25;;;;;;;20.25;9.63;;;;;;;4.03;74.76;93662.69;5062086;28;20416;-69
2021/01/11 11:45:51;;;;;;;15.23;8.45;;;;;;;3.86;76.07;93657.00;5065544;28;20112;-69
2021/01/11 11:48:16;;;;;;;10.13;5.78;;;;;;;3.74;76.37;93654.72;5068943;28;20127;-69